sensor_id;sensor_type;location;lat;lon;timestamp;temperature;humidity
3488;DHT22;38546;48.170;11.724;2023-08-08T00:02:44;13.30;99.90
3488;DHT22;38546;48.170;11.724;2023-08-08T00:05:33;13.30;99.90
3488;DHT22;38546;48.170;11.724;2023-08-08T00:08:22;13.30;99.90
3488;DHT22;38546;48.170;11.724;2023-08-08T00:11:11;13.30;99.90
3488;DHT22;38546;48.170;11.724;2023-08-08T00:14:02;13.20;99.90
3488;DHT22;38546;48.170;11.724;2023-08-08T00:16:51;13.10;99.90
3488;DHT22;38546;48.170;11.724;2023-08-08T00:19:40;13.20;99.90
3488;DHT22;38546;48.170;11.724;2023-08-08T00:22:30;13.20;99.90
3488;DHT22;38546;48.170;11.724;2023-08-08T00:25:19;13.20;99.90
3488;DHT22;38546;48.170;11.724;2023-08-08T00:28:09;13.10;99.90
3488;DHT22;38546;48.170;11.724;2023-08-08T00:30:58;13.10;99.90
3488;DHT22;38546;48.170;11.724;2023-08-08T00:33:47;13.10;99.90
3488;DHT22;38546;48.170;11.724;2023-08-08T00:36:37;13.10;99.90
3488;DHT22;38546;48.170;11.724;2023-08-08T00:39:26;13.30;99.90
3488;DHT22;38546;48.170;11.724;2023-08-08T00:42:15;13.30;99.90
3488;DHT22;38546;48.170;11.724;2023-08-08T00:45:05;13.30;99.90
3488;DHT22;38546;48.170;11.724;2023-08-08T00:47:55;13.20;99.90
3488;DHT22;38546;48.170;11.724;2023-08-08T00:50:44;13.20;99.90
3488;DHT22;38546;48.170;11.724;2023-08-08T00:53:34;13.20;99.90
3488;DHT22;38546;48.170;11.724;2023-08-08T00:56:24;13.20;99.90
3488;DHT22;38546;48.170;11.724;2023-08-08T00:59:14;13.30;99.90
3488;DHT22;38546;48.170;11.724;2023-08-08T01:02:05;13.30;99.90
3488;DHT22;38546;48.170;11.724;2023-08-08T01:04:55;13.30;99.90
3488;DHT22;38546;48.170;11.724;2023-08-08T01:07:54;13.20;99.90
3488;DHT22;38546;48.170;11.724;2023-08-08T01:10:46;13.20;99.90
3488;DHT22;38546;48.170;11.724;2023-08-08T01:13:37;13.20;99.90
3488;DHT22;38546;48.170;11.724;2023-08-08T01:16:27;13.20;99.90
3488;DHT22;38546;48.170;11.724;2023-08-08T01:19:25;13.20;99.90
3488;DHT22;38546;48.170;11.724;2023-08-08T01:22:32;13.20;99.90
3488;DHT22;38546;48.170;11.724;2023-08-08T01:25:24;13.20;99.90
3488;DHT22;38546;48.170;11.724;2023-08-08T01:28:14;13.30;99.90
3488;DHT22;38546;48.170;11.724;2023-08-08T01:31:03;13.40;99.90
3488;DHT22;38546;48.170;11.724;2023-08-08T01:33:52;13.30;99.90
3488;DHT22;38546;48.170;11.724;2023-08-08T01:36:59;13.20;99.90
3488;DHT22;38546;48.170;11.724;2023-08-08T01:39:55;13.10;99.90
3488;DHT22;38546;48.170;11.724;2023-08-08T01:42:48;13.00;99.90
3488;DHT22;38546;48.170;11.724;2023-08-08T01:45:39;13.00;99.90
3488;DHT22;38546;48.170;11.724;2023-08-08T01:48:29;13.00;99.90
3488;DHT22;38546;48.170;11.724;2023-08-08T01:51:18;12.90;99.90
3488;DHT22;38546;48.170;11.724;2023-08-08T01:54:07;12.80;99.90
3488;DHT22;38546;48.170;11.724;2023-08-08T01:56:57;12.80;99.90
3488;DHT22;38546;48.170;11.724;2023-08-08T01:59:46;12.70;99.90
3488;DHT22;38546;48.170;11.724;2023-08-08T02:02:35;12.70;99.90
3488;DHT22;38546;48.170;11.724;2023-08-08T02:05:25;12.60;99.90
3488;DHT22;38546;48.170;11.724;2023-08-08T02:08:15;12.50;99.90
3488;DHT22;38546;48.170;11.724;2023-08-08T02:11:04;12.50;99.90
3488;DHT22;38546;48.170;11.724;2023-08-08T02:13:53;12.40;99.90
3488;DHT22;38546;48.170;11.724;2023-08-08T02:16:42;12.30;99.90
3488;DHT22;38546;48.170;11.724;2023-08-08T02:19:32;12.20;99.90
3488;DHT22;38546;48.170;11.724;2023-08-08T02:22:22;12.10;99.90
3488;DHT22;38546;48.170;11.724;2023-08-08T02:25:11;12.10;99.90
3488;DHT22;38546;48.170;11.724;2023-08-08T02:28:01;12.00;99.90
3488;DHT22;38546;48.170;11.724;2023-08-08T02:30:50;11.90;99.90
3488;DHT22;38546;48.170;11.724;2023-08-08T02:33:39;11.90;99.90
3488;DHT22;38546;48.170;11.724;2023-08-08T02:36:29;11.90;99.90
3488;DHT22;38546;48.170;11.724;2023-08-08T02:39:18;11.80;99.90
3488;DHT22;38546;48.170;11.724;2023-08-08T02:42:08;11.80;99.90
3488;DHT22;38546;48.170;11.724;2023-08-08T02:44:57;11.70;99.90
3488;DHT22;38546;48.170;11.724;2023-08-08T02:47:46;11.70;99.90
3488;DHT22;38546;48.170;11.724;2023-08-08T02:50:35;11.60;99.90
3488;DHT22;38546;48.170;11.724;2023-08-08T02:53:24;11.60;99.90
3488;DHT22;38546;48.170;11.724;2023-08-08T02:56:13;11.50;99.90
3488;DHT22;38546;48.170;11.724;2023-08-08T02:59:02;11.50;99.90
3488;DHT22;38546;48.170;11.724;2023-08-08T03:01:51;11.50;99.90
3488;DHT22;38546;48.170;11.724;2023-08-08T03:04:41;11.40;99.90
3488;DHT22;38546;48.170;11.724;2023-08-08T03:07:30;11.40;99.90
3488;DHT22;38546;48.170;11.724;2023-08-08T03:10:20;11.30;99.90
3488;DHT22;38546;48.170;11.724;2023-08-08T03:13:09;11.30;99.90
3488;DHT22;38546;48.170;11.724;2023-08-08T03:15:58;11.20;99.90
3488;DHT22;38546;48.170;11.724;2023-08-08T03:18:48;11.10;99.90
3488;DHT22;38546;48.170;11.724;2023-08-08T03:21:37;11.10;99.90
3488;DHT22;38546;48.170;11.724;2023-08-08T03:24:26;11.10;99.90
3488;DHT22;38546;48.170;11.724;2023-08-08T03:27:15;11.10;99.90
3488;DHT22;38546;48.170;11.724;2023-08-08T03:30:05;11.10;99.90
3488;DHT22;38546;48.170;11.724;2023-08-08T03:32:55;11.10;99.90
3488;DHT22;38546;48.170;11.724;2023-08-08T03:35:44;11.20;99.90
3488;DHT22;38546;48.170;11.724;2023-08-08T03:38:34;11.20;99.90
3488;DHT22;38546;48.170;11.724;2023-08-08T03:41:24;11.30;99.90
3488;DHT22;38546;48.170;11.724;2023-08-08T03:44:14;11.30;99.90
3488;DHT22;38546;48.170;11.724;2023-08-08T03:47:03;11.30;99.90
3488;DHT22;38546;48.170;11.724;2023-08-08T03:49:54;11.40;99.90
3488;DHT22;38546;48.170;11.724;2023-08-08T03:52:46;11.40;99.90
3488;DHT22;38546;48.170;11.724;2023-08-08T03:55:35;11.40;99.90
3488;DHT22;38546;48.170;11.724;2023-08-08T03:58:24;11.40;99.90
3488;DHT22;38546;48.170;11.724;2023-08-08T04:01:14;11.40;99.90
3488;DHT22;38546;48.170;11.724;2023-08-08T04:04:04;11.40;99.90
3488;DHT22;38546;48.170;11.724;2023-08-08T04:06:53;11.50;99.90
3488;DHT22;38546;48.170;11.724;2023-08-08T04:09:42;11.50;99.90
3488;DHT22;38546;48.170;11.724;2023-08-08T04:12:31;11.60;99.90
3488;DHT22;38546;48.170;11.724;2023-08-08T04:15:21;11.60;99.90
3488;DHT22;38546;48.170;11.724;2023-08-08T04:18:11;11.60;99.90
3488;DHT22;38546;48.170;11.724;2023-08-08T04:21:00;11.70;99.90
3488;DHT22;38546;48.170;11.724;2023-08-08T04:23:50;11.70;99.90
3488;DHT22;38546;48.170;11.724;2023-08-08T04:26:40;11.80;99.90
3488;DHT22;38546;48.170;11.724;2023-08-08T04:29:29;11.80;99.90
3488;DHT22;38546;48.170;11.724;2023-08-08T04:32:18;11.80;99.90
3488;DHT22;38546;48.170;11.724;2023-08-08T04:35:07;11.90;99.90
3488;DHT22;38546;48.170;11.724;2023-08-08T04:37:57;11.90;99.90
3488;DHT22;38546;48.170;11.724;2023-08-08T04:40:46;12.00;99.90
3488;DHT22;38546;48.170;11.724;2023-08-08T04:43:35;12.00;99.90
3488;DHT22;38546;48.170;11.724;2023-08-08T04:46:24;12.10;99.90
3488;DHT22;38546;48.170;11.724;2023-08-08T04:49:13;12.10;99.90
3488;DHT22;38546;48.170;11.724;2023-08-08T04:52:03;12.10;99.90
3488;DHT22;38546;48.170;11.724;2023-08-08T04:54:53;12.10;99.90
3488;DHT22;38546;48.170;11.724;2023-08-08T04:57:42;12.20;99.90
3488;DHT22;38546;48.170;11.724;2023-08-08T05:00:31;12.20;99.90
3488;DHT22;38546;48.170;11.724;2023-08-08T05:03:21;12.20;99.90
3488;DHT22;38546;48.170;11.724;2023-08-08T05:06:10;12.30;99.90
3488;DHT22;38546;48.170;11.724;2023-08-08T05:08:59;12.30;99.90
3488;DHT22;38546;48.170;11.724;2023-08-08T05:11:49;12.40;99.90
3488;DHT22;38546;48.170;11.724;2023-08-08T05:14:38;12.40;99.90
3488;DHT22;38546;48.170;11.724;2023-08-08T05:17:30;12.50;99.90
3488;DHT22;38546;48.170;11.724;2023-08-08T05:20:21;12.60;99.90
3488;DHT22;38546;48.170;11.724;2023-08-08T05:23:11;12.70;99.90
3488;DHT22;38546;48.170;11.724;2023-08-08T05:26:00;12.70;99.90
3488;DHT22;38546;48.170;11.724;2023-08-08T05:28:50;12.80;99.90
3488;DHT22;38546;48.170;11.724;2023-08-08T05:31:39;12.90;99.90
3488;DHT22;38546;48.170;11.724;2023-08-08T05:34:29;12.90;99.90
3488;DHT22;38546;48.170;11.724;2023-08-08T05:37:18;13.00;99.90
3488;DHT22;38546;48.170;11.724;2023-08-08T05:40:08;13.10;99.90
3488;DHT22;38546;48.170;11.724;2023-08-08T05:42:59;13.10;99.90
3488;DHT22;38546;48.170;11.724;2023-08-08T05:45:48;13.30;99.90
3488;DHT22;38546;48.170;11.724;2023-08-08T05:48:36;13.40;99.90
3488;DHT22;38546;48.170;11.724;2023-08-08T05:51:25;13.60;99.90
3488;DHT22;38546;48.170;11.724;2023-08-08T05:54:14;13.60;99.90
3488;DHT22;38546;48.170;11.724;2023-08-08T05:57:03;13.70;99.90
3488;DHT22;38546;48.170;11.724;2023-08-08T05:59:53;13.80;99.90
3488;DHT22;38546;48.170;11.724;2023-08-08T06:02:42;13.90;99.90
3488;DHT22;38546;48.170;11.724;2023-08-08T06:05:32;14.10;99.90
3488;DHT22;38546;48.170;11.724;2023-08-08T06:08:21;14.10;99.90
3488;DHT22;38546;48.170;11.724;2023-08-08T06:11:10;14.20;99.90
3488;DHT22;38546;48.170;11.724;2023-08-08T06:14:00;14.20;99.90
3488;DHT22;38546;48.170;11.724;2023-08-08T06:16:49;14.40;99.90
3488;DHT22;38546;48.170;11.724;2023-08-08T06:19:39;14.30;99.90
3488;DHT22;38546;48.170;11.724;2023-08-08T06:22:28;14.30;99.90
3488;DHT22;38546;48.170;11.724;2023-08-08T06:25:16;14.50;99.90
3488;DHT22;38546;48.170;11.724;2023-08-08T06:28:06;14.80;99.90
3488;DHT22;38546;48.170;11.724;2023-08-08T06:30:56;15.00;99.90
3488;DHT22;38546;48.170;11.724;2023-08-08T06:33:46;15.50;99.90
3488;DHT22;38546;48.170;11.724;2023-08-08T06:36:35;15.80;99.90
3488;DHT22;38546;48.170;11.724;2023-08-08T06:39:24;16.00;99.90
3488;DHT22;38546;48.170;11.724;2023-08-08T06:42:13;16.20;99.90
3488;DHT22;38546;48.170;11.724;2023-08-08T06:45:03;16.10;99.90
3488;DHT22;38546;48.170;11.724;2023-08-08T06:47:53;16.30;99.90
3488;DHT22;38546;48.170;11.724;2023-08-08T06:50:42;16.50;99.90
3488;DHT22;38546;48.170;11.724;2023-08-08T06:53:32;16.40;99.90
3488;DHT22;38546;48.170;11.724;2023-08-08T06:56:21;16.60;99.90
3488;DHT22;38546;48.170;11.724;2023-08-08T06:59:10;16.70;99.90
3488;DHT22;38546;48.170;11.724;2023-08-08T07:01:59;17.00;99.90
3488;DHT22;38546;48.170;11.724;2023-08-08T07:04:48;16.80;99.90
3488;DHT22;38546;48.170;11.724;2023-08-08T07:07:38;17.00;99.90
3488;DHT22;38546;48.170;11.724;2023-08-08T07:10:28;17.10;99.90
3488;DHT22;38546;48.170;11.724;2023-08-08T07:13:17;17.00;99.90
3488;DHT22;38546;48.170;11.724;2023-08-08T07:16:06;17.10;99.90
3488;DHT22;38546;48.170;11.724;2023-08-08T07:18:55;17.20;99.90
3488;DHT22;38546;48.170;11.724;2023-08-08T07:21:44;17.20;99.90
3488;DHT22;38546;48.170;11.724;2023-08-08T07:24:33;17.40;99.90
3488;DHT22;38546;48.170;11.724;2023-08-08T07:27:23;17.40;99.90
3488;DHT22;38546;48.170;11.724;2023-08-08T07:30:12;17.60;99.90
3488;DHT22;38546;48.170;11.724;2023-08-08T07:33:02;17.70;99.90
3488;DHT22;38546;48.170;11.724;2023-08-08T07:35:51;17.60;99.90
3488;DHT22;38546;48.170;11.724;2023-08-08T07:38:40;17.80;99.90
3488;DHT22;38546;48.170;11.724;2023-08-08T07:41:30;18.00;99.90
3488;DHT22;38546;48.170;11.724;2023-08-08T07:44:19;18.20;99.90
3488;DHT22;38546;48.170;11.724;2023-08-08T07:47:08;18.30;99.90
3488;DHT22;38546;48.170;11.724;2023-08-08T07:49:57;18.20;99.90
3488;DHT22;38546;48.170;11.724;2023-08-08T07:52:46;18.20;99.90
3488;DHT22;38546;48.170;11.724;2023-08-08T07:55:36;18.30;99.90
3488;DHT22;38546;48.170;11.724;2023-08-08T07:58:25;18.50;99.90
3488;DHT22;38546;48.170;11.724;2023-08-08T08:01:15;18.60;99.90
3488;DHT22;38546;48.170;11.724;2023-08-08T08:04:05;18.80;99.90
3488;DHT22;38546;48.170;11.724;2023-08-08T08:06:54;18.90;99.90
3488;DHT22;38546;48.170;11.724;2023-08-08T08:09:44;19.00;99.90
3488;DHT22;38546;48.170;11.724;2023-08-08T08:12:35;19.00;99.90
3488;DHT22;38546;48.170;11.724;2023-08-08T08:15:25;18.90;99.90
3488;DHT22;38546;48.170;11.724;2023-08-08T08:18:15;19.20;99.90
3488;DHT22;38546;48.170;11.724;2023-08-08T08:21:06;19.30;99.90
3488;DHT22;38546;48.170;11.724;2023-08-08T08:23:55;19.40;99.90
3488;DHT22;38546;48.170;11.724;2023-08-08T08:26:45;19.50;99.90
3488;DHT22;38546;48.170;11.724;2023-08-08T08:29:34;19.50;99.90
3488;DHT22;38546;48.170;11.724;2023-08-08T08:32:23;19.60;99.90
3488;DHT22;38546;48.170;11.724;2023-08-08T08:35:13;19.70;99.90
3488;DHT22;38546;48.170;11.724;2023-08-08T08:38:03;19.90;99.90
3488;DHT22;38546;48.170;11.724;2023-08-08T08:40:54;19.80;99.90
3488;DHT22;38546;48.170;11.724;2023-08-08T08:43:45;19.80;99.90
3488;DHT22;38546;48.170;11.724;2023-08-08T08:46:36;19.60;99.90
3488;DHT22;38546;48.170;11.724;2023-08-08T08:49:32;19.50;99.90
3488;DHT22;38546;48.170;11.724;2023-08-08T08:52:21;19.60;99.90
3488;DHT22;38546;48.170;11.724;2023-08-08T08:55:12;19.60;99.90
3488;DHT22;38546;48.170;11.724;2023-08-08T08:58:02;19.80;99.90
3488;DHT22;38546;48.170;11.724;2023-08-08T09:00:52;19.90;99.90
3488;DHT22;38546;48.170;11.724;2023-08-08T09:03:44;19.90;99.90
3488;DHT22;38546;48.170;11.724;2023-08-08T09:06:33;20.20;99.90
3488;DHT22;38546;48.170;11.724;2023-08-08T09:09:24;20.30;99.90
3488;DHT22;38546;48.170;11.724;2023-08-08T09:12:15;20.60;99.90
3488;DHT22;38546;48.170;11.724;2023-08-08T09:15:05;20.90;99.90
3488;DHT22;38546;48.170;11.724;2023-08-08T09:17:56;20.90;99.90
3488;DHT22;38546;48.170;11.724;2023-08-08T09:20:47;21.00;99.90
3488;DHT22;38546;48.170;11.724;2023-08-08T09:23:38;20.90;99.90
3488;DHT22;38546;48.170;11.724;2023-08-08T09:26:28;20.80;99.90
3488;DHT22;38546;48.170;11.724;2023-08-08T09:29:18;20.40;99.90
3488;DHT22;38546;48.170;11.724;2023-08-08T09:32:08;20.60;99.90
3488;DHT22;38546;48.170;11.724;2023-08-08T09:34:58;20.80;99.90
3488;DHT22;38546;48.170;11.724;2023-08-08T09:37:48;20.90;99.90
3488;DHT22;38546;48.170;11.724;2023-08-08T09:40:37;20.60;99.90
3488;DHT22;38546;48.170;11.724;2023-08-08T09:43:27;21.00;99.90
3488;DHT22;38546;48.170;11.724;2023-08-08T09:46:19;21.00;99.70
3488;DHT22;38546;48.170;11.724;2023-08-08T09:49:10;20.80;99.90
3488;DHT22;38546;48.170;11.724;2023-08-08T09:52:02;20.80;99.90
3488;DHT22;38546;48.170;11.724;2023-08-08T09:54:52;20.60;99.90
3488;DHT22;38546;48.170;11.724;2023-08-08T09:57:42;20.70;99.60
3488;DHT22;38546;48.170;11.724;2023-08-08T10:00:33;20.60;99.60
3488;DHT22;38546;48.170;11.724;2023-08-08T10:03:24;20.80;99.90
3488;DHT22;38546;48.170;11.724;2023-08-08T10:06:14;21.00;99.00
3488;DHT22;38546;48.170;11.724;2023-08-08T10:09:04;21.20;99.30
3488;DHT22;38546;48.170;11.724;2023-08-08T10:11:54;21.60;99.10
3488;DHT22;38546;48.170;11.724;2023-08-08T10:14:45;21.80;99.20
3488;DHT22;38546;48.170;11.724;2023-08-08T10:17:36;21.90;98.90
3488;DHT22;38546;48.170;11.724;2023-08-08T10:20:27;21.90;98.90
3488;DHT22;38546;48.170;11.724;2023-08-08T10:23:17;21.80;98.30
3488;DHT22;38546;48.170;11.724;2023-08-08T10:26:18;21.70;97.70
3488;DHT22;38546;48.170;11.724;2023-08-08T10:29:18;21.40;97.70
3488;DHT22;38546;48.170;11.724;2023-08-08T10:32:08;21.40;98.40
3488;DHT22;38546;48.170;11.724;2023-08-08T10:34:57;21.50;97.90
3488;DHT22;38546;48.170;11.724;2023-08-08T10:37:54;21.50;98.10
3488;DHT22;38546;48.170;11.724;2023-08-08T10:40:43;21.70;98.00
3488;DHT22;38546;48.170;11.724;2023-08-08T10:43:34;21.80;96.40
3488;DHT22;38546;48.170;11.724;2023-08-08T10:46:31;21.80;97.20
3488;DHT22;38546;48.170;11.724;2023-08-08T10:49:21;22.00;97.20
3488;DHT22;38546;48.170;11.724;2023-08-08T10:52:14;22.00;97.00
3488;DHT22;38546;48.170;11.724;2023-08-08T10:55:04;21.80;96.40
3488;DHT22;38546;48.170;11.724;2023-08-08T10:58:02;21.90;97.30
3488;DHT22;38546;48.170;11.724;2023-08-08T11:00:54;22.30;95.80
3488;DHT22;38546;48.170;11.724;2023-08-08T11:03:44;22.40;95.40
3488;DHT22;38546;48.170;11.724;2023-08-08T11:06:34;22.50;95.10
3488;DHT22;38546;48.170;11.724;2023-08-08T11:09:24;22.50;95.20
3488;DHT22;38546;48.170;11.724;2023-08-08T11:12:15;22.10;95.50
3488;DHT22;38546;48.170;11.724;2023-08-08T11:15:06;21.90;94.60
3488;DHT22;38546;48.170;11.724;2023-08-08T11:17:57;22.00;95.10
3488;DHT22;38546;48.170;11.724;2023-08-08T11:20:47;22.00;94.30
3488;DHT22;38546;48.170;11.724;2023-08-08T11:23:37;22.00;94.70
3488;DHT22;38546;48.170;11.724;2023-08-08T11:26:27;21.90;94.90
3488;DHT22;38546;48.170;11.724;2023-08-08T11:29:20;21.80;94.50
3488;DHT22;38546;48.170;11.724;2023-08-08T11:32:12;21.80;94.40
3488;DHT22;38546;48.170;11.724;2023-08-08T11:35:02;21.80;94.20
3488;DHT22;38546;48.170;11.724;2023-08-08T11:37:53;21.80;93.30
3488;DHT22;38546;48.170;11.724;2023-08-08T11:40:44;22.00;94.90
3488;DHT22;38546;48.170;11.724;2023-08-08T11:43:34;22.30;94.10
3488;DHT22;38546;48.170;11.724;2023-08-08T11:46:23;22.30;94.00
3488;DHT22;38546;48.170;11.724;2023-08-08T11:49:17;22.20;93.30
3488;DHT22;38546;48.170;11.724;2023-08-08T11:52:07;22.10;93.30
3488;DHT22;38546;48.170;11.724;2023-08-08T11:54:58;22.10;92.30
3488;DHT22;38546;48.170;11.724;2023-08-08T11:57:51;22.40;91.60
3488;DHT22;38546;48.170;11.724;2023-08-08T12:00:45;22.50;92.40
3488;DHT22;38546;48.170;11.724;2023-08-08T12:03:35;22.70;93.20
3488;DHT22;38546;48.170;11.724;2023-08-08T12:06:30;23.00;92.60
3488;DHT22;38546;48.170;11.724;2023-08-08T12:09:20;23.10;92.10
3488;DHT22;38546;48.170;11.724;2023-08-08T12:12:09;23.50;91.30
3488;DHT22;38546;48.170;11.724;2023-08-08T12:14:59;23.50;91.10
3488;DHT22;38546;48.170;11.724;2023-08-08T12:17:52;23.50;90.60
3488;DHT22;38546;48.170;11.724;2023-08-08T12:20:42;23.30;91.40
3488;DHT22;38546;48.170;11.724;2023-08-08T12:23:33;23.00;90.60
3488;DHT22;38546;48.170;11.724;2023-08-08T12:26:23;22.80;90.90
3488;DHT22;38546;48.170;11.724;2023-08-08T12:29:13;22.70;89.00
3488;DHT22;38546;48.170;11.724;2023-08-08T12:32:03;22.60;89.10
3488;DHT22;38546;48.170;11.724;2023-08-08T12:34:56;22.50;89.70
3488;DHT22;38546;48.170;11.724;2023-08-08T12:37:46;22.50;90.00
3488;DHT22;38546;48.170;11.724;2023-08-08T12:40:36;22.50;89.20
3488;DHT22;38546;48.170;11.724;2023-08-08T12:43:25;22.40;90.10
3488;DHT22;38546;48.170;11.724;2023-08-08T12:46:15;22.60;90.00
3488;DHT22;38546;48.170;11.724;2023-08-08T12:49:04;22.70;89.90
3488;DHT22;38546;48.170;11.724;2023-08-08T12:51:53;22.80;89.20
3488;DHT22;38546;48.170;11.724;2023-08-08T12:54:44;22.80;90.40
3488;DHT22;38546;48.170;11.724;2023-08-08T12:57:34;22.90;90.50
3488;DHT22;38546;48.170;11.724;2023-08-08T13:00:23;22.80;87.80
3488;DHT22;38546;48.170;11.724;2023-08-08T13:03:13;22.80;86.50
3488;DHT22;38546;48.170;11.724;2023-08-08T13:06:03;22.70;87.50
3488;DHT22;38546;48.170;11.724;2023-08-08T13:08:52;22.70;87.50
3488;DHT22;38546;48.170;11.724;2023-08-08T13:11:42;22.80;90.00
3488;DHT22;38546;48.170;11.724;2023-08-08T13:14:31;22.90;90.00
3488;DHT22;38546;48.170;11.724;2023-08-08T13:17:21;22.80;88.30
3488;DHT22;38546;48.170;11.724;2023-08-08T13:20:11;22.70;88.20
3488;DHT22;38546;48.170;11.724;2023-08-08T13:23:00;22.70;87.60
3488;DHT22;38546;48.170;11.724;2023-08-08T13:25:49;22.40;88.40
3488;DHT22;38546;48.170;11.724;2023-08-08T13:28:39;22.30;89.30
3488;DHT22;38546;48.170;11.724;2023-08-08T13:31:28;22.20;89.10
3488;DHT22;38546;48.170;11.724;2023-08-08T13:34:17;22.30;90.20
3488;DHT22;38546;48.170;11.724;2023-08-08T13:37:07;22.30;90.80
3488;DHT22;38546;48.170;11.724;2023-08-08T13:39:57;22.40;89.90
3488;DHT22;38546;48.170;11.724;2023-08-08T13:42:46;22.30;88.30
3488;DHT22;38546;48.170;11.724;2023-08-08T13:45:37;22.30;90.10
3488;DHT22;38546;48.170;11.724;2023-08-08T13:48:26;22.20;90.20
3488;DHT22;38546;48.170;11.724;2023-08-08T13:51:16;22.20;89.40
3488;DHT22;38546;48.170;11.724;2023-08-08T13:54:06;22.10;89.00
3488;DHT22;38546;48.170;11.724;2023-08-08T13:56:55;22.30;89.10
3488;DHT22;38546;48.170;11.724;2023-08-08T13:59:44;22.10;90.00
3488;DHT22;38546;48.170;11.724;2023-08-08T14:02:33;22.30;90.30
3488;DHT22;38546;48.170;11.724;2023-08-08T14:05:24;22.20;91.00
3488;DHT22;38546;48.170;11.724;2023-08-08T14:08:13;22.40;91.00
3488;DHT22;38546;48.170;11.724;2023-08-08T14:11:03;22.50;90.20
3488;DHT22;38546;48.170;11.724;2023-08-08T14:13:53;22.50;90.30
3488;DHT22;38546;48.170;11.724;2023-08-08T14:16:42;22.60;90.30
3488;DHT22;38546;48.170;11.724;2023-08-08T14:19:31;22.70;90.50
3488;DHT22;38546;48.170;11.724;2023-08-08T14:22:21;22.80;90.00
3488;DHT22;38546;48.170;11.724;2023-08-08T14:25:10;22.90;88.40
3488;DHT22;38546;48.170;11.724;2023-08-08T14:27:59;22.90;88.40
3488;DHT22;38546;48.170;11.724;2023-08-08T14:30:50;22.70;87.20
3488;DHT22;38546;48.170;11.724;2023-08-08T14:33:39;22.70;88.20
3488;DHT22;38546;48.170;11.724;2023-08-08T14:36:29;22.50;89.40
3488;DHT22;38546;48.170;11.724;2023-08-08T14:39:18;22.60;90.20
3488;DHT22;38546;48.170;11.724;2023-08-08T14:42:07;22.50;88.80
3488;DHT22;38546;48.170;11.724;2023-08-08T14:44:57;22.60;90.30
3488;DHT22;38546;48.170;11.724;2023-08-08T14:47:46;22.70;90.70
3488;DHT22;38546;48.170;11.724;2023-08-08T14:50:36;22.70;90.50
3488;DHT22;38546;48.170;11.724;2023-08-08T14:53:26;22.70;90.70
3488;DHT22;38546;48.170;11.724;2023-08-08T14:56:15;22.70;90.30
3488;DHT22;38546;48.170;11.724;2023-08-08T14:59:04;23.00;89.30
3488;DHT22;38546;48.170;11.724;2023-08-08T15:01:53;23.00;89.80
3488;DHT22;38546;48.170;11.724;2023-08-08T15:04:43;23.00;89.90
3488;DHT22;38546;48.170;11.724;2023-08-08T15:07:32;22.90;90.00
3488;DHT22;38546;48.170;11.724;2023-08-08T15:10:21;22.80;90.50
3488;DHT22;38546;48.170;11.724;2023-08-08T15:13:10;22.80;90.60
3488;DHT22;38546;48.170;11.724;2023-08-08T15:16:00;22.90;90.60
3488;DHT22;38546;48.170;11.724;2023-08-08T15:18:49;22.90;89.00
3488;DHT22;38546;48.170;11.724;2023-08-08T15:21:39;22.80;90.30
3488;DHT22;38546;48.170;11.724;2023-08-08T15:24:28;22.90;90.80
3488;DHT22;38546;48.170;11.724;2023-08-08T15:27:17;23.00;90.40
3488;DHT22;38546;48.170;11.724;2023-08-08T15:30:07;23.10;89.80
3488;DHT22;38546;48.170;11.724;2023-08-08T15:32:58;23.20;89.80
3488;DHT22;38546;48.170;11.724;2023-08-08T15:35:47;23.10;90.70
3488;DHT22;38546;48.170;11.724;2023-08-08T15:38:36;23.10;90.20
3488;DHT22;38546;48.170;11.724;2023-08-08T15:41:25;23.00;89.30
3488;DHT22;38546;48.170;11.724;2023-08-08T15:44:15;22.80;90.10
3488;DHT22;38546;48.170;11.724;2023-08-08T15:47:05;22.80;89.80
3488;DHT22;38546;48.170;11.724;2023-08-08T15:49:54;22.90;90.20
3488;DHT22;38546;48.170;11.724;2023-08-08T15:52:44;22.90;90.20
3488;DHT22;38546;48.170;11.724;2023-08-08T15:55:32;22.90;90.30
3488;DHT22;38546;48.170;11.724;2023-08-08T15:58:22;22.80;91.00
3488;DHT22;38546;48.170;11.724;2023-08-08T16:01:11;22.70;90.70
3488;DHT22;38546;48.170;11.724;2023-08-08T16:04:00;22.60;91.80
3488;DHT22;38546;48.170;11.724;2023-08-08T16:06:49;22.80;90.90
3488;DHT22;38546;48.170;11.724;2023-08-08T16:09:38;22.90;90.90
3488;DHT22;38546;48.170;11.724;2023-08-08T16:12:27;22.80;90.60
3488;DHT22;38546;48.170;11.724;2023-08-08T16:15:16;22.80;90.90
3488;DHT22;38546;48.170;11.724;2023-08-08T16:18:07;22.70;90.80
3488;DHT22;38546;48.170;11.724;2023-08-08T16:20:56;22.80;90.30
3488;DHT22;38546;48.170;11.724;2023-08-08T16:23:45;22.70;90.50
3488;DHT22;38546;48.170;11.724;2023-08-08T16:26:34;22.60;91.00
3488;DHT22;38546;48.170;11.724;2023-08-08T16:29:23;22.50;90.90
3488;DHT22;38546;48.170;11.724;2023-08-08T16:32:13;22.30;91.50
3488;DHT22;38546;48.170;11.724;2023-08-08T16:35:02;22.50;91.10
3488;DHT22;38546;48.170;11.724;2023-08-08T16:37:52;22.40;91.30
3488;DHT22;38546;48.170;11.724;2023-08-08T16:40:42;22.50;91.20
3488;DHT22;38546;48.170;11.724;2023-08-08T16:43:35;22.40;91.40
3488;DHT22;38546;48.170;11.724;2023-08-08T16:46:25;22.20;91.70
3488;DHT22;38546;48.170;11.724;2023-08-08T16:49:14;22.10;91.90
3488;DHT22;38546;48.170;11.724;2023-08-08T16:52:04;22.00;92.00
3488;DHT22;38546;48.170;11.724;2023-08-08T16:54:53;22.20;91.50
3488;DHT22;38546;48.170;11.724;2023-08-08T16:57:42;22.10;91.80
3488;DHT22;38546;48.170;11.724;2023-08-08T17:00:31;22.10;91.70
3488;DHT22;38546;48.170;11.724;2023-08-08T17:03:20;21.90;92.00
3488;DHT22;38546;48.170;11.724;2023-08-08T17:06:12;21.90;92.00
3488;DHT22;38546;48.170;11.724;2023-08-08T17:09:02;21.80;92.10
3488;DHT22;38546;48.170;11.724;2023-08-08T17:11:52;21.60;92.40
3488;DHT22;38546;48.170;11.724;2023-08-08T17:14:41;21.70;92.30
3488;DHT22;38546;48.170;11.724;2023-08-08T17:17:31;21.80;92.50
3488;DHT22;38546;48.170;11.724;2023-08-08T17:20:20;21.70;92.90
3488;DHT22;38546;48.170;11.724;2023-08-08T17:23:08;21.80;93.00
3488;DHT22;38546;48.170;11.724;2023-08-08T17:25:58;21.70;93.10
3488;DHT22;38546;48.170;11.724;2023-08-08T17:28:47;21.60;93.20
3488;DHT22;38546;48.170;11.724;2023-08-08T17:31:38;21.50;93.20
3488;DHT22;38546;48.170;11.724;2023-08-08T17:34:27;21.40;93.40
3488;DHT22;38546;48.170;11.724;2023-08-08T17:37:16;21.30;93.50
3488;DHT22;38546;48.170;11.724;2023-08-08T17:40:06;21.30;93.50
3488;DHT22;38546;48.170;11.724;2023-08-08T17:42:56;21.30;93.40
3488;DHT22;38546;48.170;11.724;2023-08-08T17:45:44;21.10;93.70
3488;DHT22;38546;48.170;11.724;2023-08-08T17:48:33;21.10;94.00
3488;DHT22;38546;48.170;11.724;2023-08-08T17:51:22;20.90;94.30
3488;DHT22;38546;48.170;11.724;2023-08-08T17:54:12;20.90;94.40